createdAt,value
2022-10-31T00:01:15.342Z,1006.9
2022-10-31T00:02:31.634Z,1006.9
2022-10-31T00:03:47.920Z,1006.9
2022-10-31T00:05:04.216Z,1006.9
2022-10-31T00:06:19.526Z,1006.9
2022-10-31T00:07:35.828Z,1006.9
2022-10-31T00:08:52.121Z,1006.9
2022-10-31T00:10:08.398Z,1006.9
2022-10-31T00:11:24.704Z,1006.9
2022-10-31T00:12:40.987Z,1006.9
2022-10-31T00:13:57.291Z,1006.9
2022-10-31T00:15:13.567Z,1006.9
2022-10-31T00:16:29.874Z,1006.9
2022-10-31T00:17:46.153Z,1006.9
2022-10-31T00:19:02.464Z,1006.9
2022-10-31T00:20:18.778Z,1007
2022-10-31T00:21:35.046Z,1007
2022-10-31T00:22:50.350Z,1007
2022-10-31T00:24:06.648Z,1007
2022-10-31T00:25:22.936Z,1007
2022-10-31T00:26:39.219Z,1007
2022-10-31T00:27:55.539Z,1007
2022-10-31T00:29:11.000Z,1007
2022-10-31T00:30:27.149Z,1007.1
2022-10-31T00:31:43.425Z,1007
2022-10-31T00:32:59.716Z,1007
2022-10-31T00:34:16.011Z,1007
2022-10-31T00:35:32.290Z,1007
2022-10-31T00:36:48.590Z,1007.1
2022-10-31T00:38:04.902Z,1007
2022-10-31T00:39:21.186Z,1007
2022-10-31T00:40:37.485Z,1007
2022-10-31T00:41:53.763Z,1007.1
2022-10-31T00:43:10.047Z,1007.1
2022-10-31T00:44:26.346Z,1007
2022-10-31T00:45:42.664Z,1007
2022-10-31T00:46:58.935Z,1007.1
2022-10-31T00:48:14.247Z,1007.1
2022-10-31T00:49:30.535Z,1007.1
2022-10-31T00:50:46.861Z,1007.1
2022-10-31T00:52:03.124Z,1007.1
2022-10-31T00:53:19.412Z,1007.2
2022-10-31T00:54:35.710Z,1007.2
2022-10-31T00:55:52.016Z,1007.2
2022-10-31T00:57:08.300Z,1007.2
2022-10-31T00:58:24.586Z,1007.2
2022-10-31T00:59:40.872Z,1007.2
2022-10-31T01:00:57.164Z,1007.2
2022-10-31T01:02:13.454Z,1007.2
2022-10-31T01:03:29.789Z,1007.2
2022-10-31T01:04:45.054Z,1007.2
2022-10-31T01:06:01.349Z,1007.2
2022-10-31T01:07:17.655Z,1007.2
2022-10-31T01:08:33.938Z,1007.2
2022-10-31T01:09:50.230Z,1007.2
2022-10-31T01:11:06.520Z,1007.2
2022-10-31T01:12:22.822Z,1007.2
2022-10-31T01:13:39.120Z,1007.2
2022-10-31T01:14:55.400Z,1007.2
2022-10-31T01:16:11.694Z,1007.2
2022-10-31T01:17:27.982Z,1007.2
2022-10-31T01:18:44.320Z,1007.1
2022-10-31T01:20:00.000Z,1007.2
2022-10-31T01:21:15.878Z,1007.2
2022-10-31T01:22:32.192Z,1007.3
2022-10-31T01:23:48.470Z,1007.3
2022-10-31T01:25:04.769Z,1007.3
2022-10-31T01:26:21.062Z,1007.3
2022-10-31T01:27:37.358Z,1007.3
2022-10-31T01:28:53.641Z,1007.3
2022-10-31T01:30:09.947Z,1007.3
2022-10-31T01:31:26.252Z,1007.3
2022-10-31T01:32:42.518Z,1007.2
2022-10-31T01:33:58.848Z,1007.3
2022-10-31T01:35:15.103Z,1007.3
2022-10-31T01:36:31.393Z,1007.3
2022-10-31T01:37:46.708Z,1007.2
2022-10-31T01:39:03.000Z,1007.2
2022-10-31T01:40:19.309Z,1007.2
2022-10-31T01:41:35.591Z,1007.2
2022-10-31T01:42:51.895Z,1007.2
2022-10-31T01:44:08.190Z,1007.2
2022-10-31T01:45:24.476Z,1007.1
2022-10-31T01:46:40.764Z,1007.2
2022-10-31T01:47:57.050Z,1007.2
2022-10-31T01:49:13.354Z,1007.2
2022-10-31T01:50:29.651Z,1007.2
2022-10-31T01:51:45.948Z,1007.2
2022-10-31T01:53:02.240Z,1007.2
2022-10-31T01:54:17.571Z,1007.3
2022-10-31T01:55:33.831Z,1007.3
2022-10-31T01:56:50.125Z,1007.3
2022-10-31T01:58:06.430Z,1007.3
2022-10-31T01:59:22.706Z,1007.3
2022-10-31T02:00:39.002Z,1007.4
2022-10-31T02:01:55.294Z,1007.3
2022-10-31T02:03:11.589Z,1007.3
2022-10-31T02:04:27.883Z,1007.4
2022-10-31T02:05:44.178Z,1007.4
2022-10-31T02:07:00.465Z,1007.3
2022-10-31T02:08:16.767Z,1007.3
2022-10-31T02:09:33.063Z,1007.4
2022-10-31T02:10:48.365Z,1007.3
2022-10-31T02:12:04.662Z,1007.4
2022-10-31T02:13:20.951Z,1007.4
2022-10-31T02:14:37.259Z,1007.4
2022-10-31T02:15:53.547Z,1007.4
2022-10-31T02:17:09.838Z,1007.4
2022-10-31T02:18:26.126Z,1007.3
2022-10-31T02:19:42.424Z,1007.3
2022-10-31T02:20:58.725Z,1007.3
2022-10-31T02:22:15.003Z,1007.4
2022-10-31T02:23:31.310Z,1007.3
2022-10-31T02:24:47.593Z,1007.3
2022-10-31T02:26:03.898Z,1007.3
2022-10-31T02:27:19.211Z,1007.3
2022-10-31T02:28:35.497Z,1007.4
2022-10-31T02:29:51.782Z,1007.4
2022-10-31T02:31:08.086Z,1007.4
2022-10-31T02:32:24.384Z,1007.4
2022-10-31T02:33:40.680Z,1007.4
2022-10-31T02:34:56.995Z,1007.4
2022-10-31T02:36:13.247Z,1007.4
2022-10-31T02:37:29.547Z,1007.4
2022-10-31T02:38:45.838Z,1007.4
2022-10-31T02:40:02.134Z,1007.4
2022-10-31T02:41:18.431Z,1007.4
2022-10-31T02:42:34.726Z,1007.4
2022-10-31T02:43:50.023Z,1007.4
2022-10-31T02:45:06.325Z,1007.4
2022-10-31T02:46:22.613Z,1007.4
2022-10-31T02:47:38.909Z,1007.4
2022-10-31T02:48:55.203Z,1007.4
2022-10-31T02:50:11.530Z,1007.4
2022-10-31T02:51:27.790Z,1007.4
2022-10-31T02:52:44.113Z,1007.5
2022-10-31T02:54:00.391Z,1007.4
2022-10-31T02:55:16.669Z,1007.5
2022-10-31T02:56:32.959Z,1007.5
2022-10-31T02:57:49.253Z,1007.5
2022-10-31T02:59:05.559Z,1007.5
2022-10-31T03:00:20.863Z,1007.5
2022-10-31T03:01:37.153Z,1007.6
2022-10-31T03:02:53.476Z,1007.6
2022-10-31T03:04:09.747Z,1007.6
2022-10-31T03:05:26.053Z,1007.6
2022-10-31T03:06:42.348Z,1007.6
2022-10-31T03:07:58.637Z,1007.6
2022-10-31T03:09:14.922Z,1007.7
2022-10-31T03:10:31.244Z,1007.7
2022-10-31T03:11:47.514Z,1007.7
2022-10-31T03:13:03.818Z,1007.7
2022-10-31T03:14:20.092Z,1007.8
2022-10-31T03:15:36.408Z,1007.8
2022-10-31T03:16:51.704Z,1007.8
2022-10-31T03:18:07.992Z,1007.7
2022-10-31T03:19:24.293Z,1007.8
2022-10-31T03:20:40.574Z,1007.7
2022-10-31T03:21:56.882Z,1007.8
2022-10-31T03:23:13.181Z,1007.8
2022-10-31T03:25:45.768Z,1007.8
2022-10-31T03:27:02.058Z,1007.8
2022-10-31T03:28:18.357Z,1007.8
2022-10-31T03:29:34.633Z,1007.8
2022-10-31T03:30:50.923Z,1007.8
2022-10-31T03:32:07.217Z,1007.8
2022-10-31T03:33:22.537Z,1007.8
2022-10-31T03:34:38.835Z,1007.8
2022-10-31T03:35:55.134Z,1007.8
2022-10-31T03:37:11.421Z,1007.9
2022-10-31T03:38:27.728Z,1007.8
2022-10-31T03:39:43.998Z,1007.8
2022-10-31T03:41:00.329Z,1007.8
2022-10-31T03:42:16.602Z,1007.8
2022-10-31T03:43:32.882Z,1007.8
2022-10-31T03:44:49.188Z,1007.8
2022-10-31T03:46:05.466Z,1007.8
2022-10-31T03:47:21.760Z,1007.8
2022-10-31T03:48:38.080Z,1007.9
2022-10-31T03:49:53.379Z,1007.9
2022-10-31T03:51:09.662Z,1007.9
2022-10-31T03:52:25.952Z,1007.9
2022-10-31T03:53:42.275Z,1007.9
2022-10-31T03:54:58.555Z,1007.9
2022-10-31T03:56:14.849Z,1007.9
2022-10-31T03:57:31.123Z,1007.9
2022-10-31T03:58:47.429Z,1007.9
2022-10-31T04:00:03.727Z,1007.9
2022-10-31T04:01:20.027Z,1007.9
2022-10-31T04:02:36.314Z,1008
2022-10-31T04:03:52.602Z,1008
2022-10-31T04:05:08.902Z,1008
2022-10-31T04:06:24.228Z,1008
2022-10-31T04:07:40.496Z,1008
2022-10-31T04:08:56.793Z,1008
2022-10-31T04:10:13.079Z,1008
2022-10-31T04:11:29.393Z,1008
2022-10-31T04:12:45.677Z,1008
2022-10-31T04:14:01.981Z,1008
2022-10-31T04:15:18.257Z,1008
2022-10-31T04:16:34.552Z,1008
2022-10-31T04:17:50.845Z,1008
2022-10-31T04:19:07.162Z,1008
2022-10-31T04:20:23.444Z,1008
2022-10-31T04:21:39.736Z,1008
2022-10-31T04:22:55.045Z,1008
2022-10-31T04:24:11.332Z,1008
2022-10-31T04:25:27.640Z,1008.1
2022-10-31T04:26:43.921Z,1008.1
2022-10-31T04:28:00.223Z,1008.1
2022-10-31T04:29:16.509Z,1008
2022-10-31T04:30:32.807Z,1008
2022-10-31T04:31:49.118Z,1008
2022-10-31T04:33:05.391Z,1008.1
2022-10-31T04:34:21.700Z,1008.1
2022-10-31T04:35:37.990Z,1008.1
2022-10-31T04:36:54.275Z,1008.1
2022-10-31T04:38:10.567Z,1008.1
2022-10-31T04:39:25.898Z,1008.1
2022-10-31T04:40:42.189Z,1008.1
2022-10-31T04:41:58.486Z,1008.1
2022-10-31T04:43:14.772Z,1008.1
2022-10-31T04:44:31.078Z,1008.1
2022-10-31T04:45:46.368Z,1008.1
2022-10-31T04:47:02.678Z,1008.1
2022-10-31T04:48:18.967Z,1008.1
2022-10-31T04:49:35.268Z,1008.1
2022-10-31T04:50:51.564Z,1008.2
2022-10-31T04:52:07.849Z,1008.2
2022-10-31T04:53:24.144Z,1008.2
2022-10-31T04:54:40.429Z,1008.3
2022-10-31T04:55:56.739Z,1008.3
2022-10-31T04:57:13.015Z,1008.3
2022-10-31T04:58:29.319Z,1008.2
2022-10-31T04:59:45.613Z,1008.2
2022-10-31T05:01:01.909Z,1008.2
2022-10-31T05:02:17.216Z,1008.3
2022-10-31T05:03:33.502Z,1008.2
2022-10-31T05:04:49.795Z,1008.3
2022-10-31T05:06:06.090Z,1008.3
2022-10-31T05:07:22.390Z,1008.2
2022-10-31T05:08:38.697Z,1008.2
2022-10-31T05:09:54.982Z,1008.3
2022-10-31T05:11:11.278Z,1008.3
2022-10-31T05:12:27.565Z,1008.3
2022-10-31T05:13:43.866Z,1008.3
2022-10-31T05:15:00.162Z,1008.3
2022-10-31T05:16:16.454Z,1008.3
2022-10-31T05:17:32.742Z,1008.3
2022-10-31T05:18:48.059Z,1008.3
2022-10-31T05:20:04.341Z,1008.3
2022-10-31T05:21:20.644Z,1008.3
2022-10-31T05:22:36.935Z,1008.2
2022-10-31T05:23:53.243Z,1008.3
2022-10-31T05:25:09.532Z,1008.3
2022-10-31T05:26:25.822Z,1008.3
2022-10-31T05:27:42.123Z,1008.3
2022-10-31T05:28:58.421Z,1008.3
2022-10-31T05:30:14.648Z,1008.3
2022-10-31T05:31:30.936Z,1008.2
2022-10-31T05:32:47.254Z,1008.2
2022-10-31T05:34:03.483Z,1008.2
2022-10-31T05:35:18.805Z,1008.2
2022-10-31T05:36:35.099Z,1008.2
2022-10-31T05:37:51.389Z,1008.2
2022-10-31T05:39:07.640Z,1008.3
2022-10-31T05:40:23.000Z,1008.3
2022-10-31T05:41:40.233Z,1008.3
2022-10-31T05:42:56.497Z,1008.3
2022-10-31T05:44:12.720Z,1008.2
2022-10-31T05:45:28.956Z,1008.2
2022-10-31T05:46:45.194Z,1008.3
2022-10-31T05:48:01.435Z,1008.3
2022-10-31T05:49:17.682Z,1008.3
2022-10-31T05:50:33.931Z,1008.3
2022-10-31T05:51:49.174Z,1008.3
2022-10-31T05:53:05.417Z,1008.3
2022-10-31T05:54:21.649Z,1008.3
2022-10-31T05:55:37.897Z,1008.3
2022-10-31T05:56:54.136Z,1008.3
2022-10-31T05:58:10.407Z,1008.3
2022-10-31T05:59:26.622Z,1008.4
2022-10-31T06:00:42.855Z,1008.4
2022-10-31T06:01:59.105Z,1008.4
2022-10-31T06:03:15.349Z,1008.4
2022-10-31T06:04:31.573Z,1008.4
2022-10-31T06:05:47.816Z,1008.4
2022-10-31T06:07:04.065Z,1008.4
2022-10-31T06:08:19.318Z,1008.4
2022-10-31T06:09:35.552Z,1008.4
2022-10-31T06:10:51.804Z,1008.4
2022-10-31T06:12:08.049Z,1008.4
2022-10-31T06:13:24.275Z,1008.4
2022-10-31T06:14:40.511Z,1008.4
2022-10-31T06:15:56.757Z,1008.4
2022-10-31T06:17:13.003Z,1008.4
2022-10-31T06:18:29.234Z,1008.4
2022-10-31T06:19:45.481Z,1008.4
2022-10-31T06:21:01.727Z,1008.4
2022-10-31T06:22:17.962Z,1008.4
2022-10-31T06:23:34.195Z,1008.4
2022-10-31T06:24:49.463Z,1008.4
2022-10-31T06:26:05.708Z,1008.4
2022-10-31T06:27:21.932Z,1008.5
2022-10-31T06:28:38.171Z,1008.5
2022-10-31T06:29:54.420Z,1008.5
2022-10-31T06:31:10.648Z,1008.6
2022-10-31T06:32:26.897Z,1008.5
2022-10-31T06:33:43.137Z,1008.5
2022-10-31T06:34:59.371Z,1008.6
2022-10-31T06:36:15.611Z,1008.6
2022-10-31T06:37:31.855Z,1008.6
2022-10-31T06:38:48.120Z,1008.6
2022-10-31T06:40:04.333Z,1008.6
2022-10-31T06:41:19.606Z,1008.7
2022-10-31T06:42:35.842Z,1008.6
2022-10-31T06:43:52.066Z,1008.7
2022-10-31T06:45:08.318Z,1008.6
2022-10-31T06:46:24.566Z,1008.7
2022-10-31T06:47:40.805Z,1008.6
2022-10-31T06:48:57.031Z,1008.7
2022-10-31T06:50:13.272Z,1008.7
2022-10-31T06:51:29.516Z,1008.7
2022-10-31T06:52:45.759Z,1008.7
2022-10-31T06:54:02.001Z,1008.7
2022-10-31T06:55:18.241Z,1008.7
2022-10-31T06:56:34.486Z,1008.8
2022-10-31T06:57:49.739Z,1008.8
2022-10-31T06:59:05.977Z,1008.8
2022-10-31T07:00:22.205Z,1008.8
2022-10-31T07:01:38.454Z,1008.8
2022-10-31T07:02:54.685Z,1008.8
2022-10-31T07:04:10.939Z,1008.8
2022-10-31T07:05:27.169Z,1008.8
2022-10-31T07:06:43.424Z,1008.8
2022-10-31T07:07:59.664Z,1008.9
2022-10-31T07:09:15.898Z,1008.9
2022-10-31T07:10:32.141Z,1008.9
2022-10-31T07:11:48.395Z,1008.9
2022-10-31T07:13:04.604Z,1008.9
2022-10-31T07:14:19.874Z,1009
2022-10-31T07:15:36.112Z,1009
2022-10-31T07:16:52.344Z,1009
2022-10-31T07:18:08.593Z,1009
2022-10-31T07:19:24.833Z,1009
2022-10-31T07:20:41.081Z,1009
2022-10-31T07:21:57.305Z,1009.1
2022-10-31T07:23:13.562Z,1009
2022-10-31T07:24:29.809Z,1009.1
2022-10-31T07:25:46.030Z,1009.1
2022-10-31T07:27:02.282Z,1009.1
2022-10-31T07:28:18.507Z,1009
2022-10-31T07:29:34.744Z,1009
2022-10-31T07:30:50.012Z,1009
2022-10-31T07:32:06.257Z,1009.1
2022-10-31T07:33:22.494Z,1009
2022-10-31T07:34:38.738Z,1009
2022-10-31T07:35:54.000Z,1009
2022-10-31T07:37:11.231Z,1009.1
2022-10-31T07:38:27.441Z,1009.1
2022-10-31T07:39:43.678Z,1009
2022-10-31T07:40:59.933Z,1009
2022-10-31T07:42:16.159Z,1009.1
2022-10-31T07:43:32.414Z,1009.1
2022-10-31T07:44:48.638Z,1009
2022-10-31T07:47:21.114Z,1009.1
2022-10-31T07:48:36.381Z,1009.1
2022-10-31T07:49:52.616Z,1009.1
2022-10-31T07:51:08.849Z,1009.1
2022-10-31T07:52:25.122Z,1009.1
2022-10-31T07:53:41.342Z,1009.1
2022-10-31T07:54:57.586Z,1009
2022-10-31T07:56:13.812Z,1009.1
2022-10-31T07:57:30.055Z,1009.1
2022-10-31T07:58:46.290Z,1009
2022-10-31T08:00:02.538Z,1009
2022-10-31T08:01:18.763Z,1009
2022-10-31T08:02:35.022Z,1009.1
2022-10-31T08:03:51.253Z,1009
2022-10-31T08:05:06.495Z,1009.1
2022-10-31T08:06:22.746Z,1009.1
2022-10-31T08:07:38.973Z,1009.1
2022-10-31T08:08:55.232Z,1009.1
2022-10-31T08:10:11.488Z,1009.1
2022-10-31T08:11:27.696Z,1009
2022-10-31T08:12:43.936Z,1009
2022-10-31T08:14:00.187Z,1009
2022-10-31T08:15:16.439Z,1009.1
2022-10-31T08:16:32.660Z,1009.1
2022-10-31T08:17:48.913Z,1009.1
2022-10-31T08:19:05.139Z,1009.1
2022-10-31T08:20:21.391Z,1009
2022-10-31T08:21:36.634Z,1009.1
2022-10-31T08:22:52.858Z,1009.1
2022-10-31T08:24:09.109Z,1009.1
2022-10-31T08:25:25.346Z,1009.1
2022-10-31T08:26:41.573Z,1009
2022-10-31T08:27:57.835Z,1009
2022-10-31T08:29:14.066Z,1009
2022-10-31T08:30:30.291Z,1009
2022-10-31T08:31:46.534Z,1009
2022-10-31T08:33:02.770Z,1009
2022-10-31T08:34:19.013Z,1009
2022-10-31T08:35:35.274Z,1009
2022-10-31T08:36:51.503Z,1009
2022-10-31T08:38:06.750Z,1009
2022-10-31T08:39:22.984Z,1009
2022-10-31T08:40:39.238Z,1009.1
2022-10-31T08:41:55.467Z,1009
2022-10-31T08:43:11.720Z,1009
2022-10-31T08:44:27.938Z,1009
2022-10-31T08:45:44.173Z,1009
2022-10-31T08:47:00.417Z,1009
2022-10-31T08:48:16.670Z,1009
2022-10-31T08:49:32.892Z,1009
2022-10-31T08:50:49.126Z,1009
2022-10-31T08:52:05.382Z,1009
2022-10-31T08:53:21.606Z,1009
2022-10-31T08:54:36.872Z,1009
2022-10-31T08:55:53.128Z,1009
2022-10-31T08:57:09.341Z,1008.9
2022-10-31T08:58:25.604Z,1009
2022-10-31T08:59:41.817Z,1009
2022-10-31T09:00:57.078Z,1009
2022-10-31T09:02:13.330Z,1008.9
2022-10-31T09:03:29.568Z,1008.9
2022-10-31T09:04:45.809Z,1008.9
2022-10-31T09:06:02.058Z,1009
2022-10-31T09:07:18.283Z,1009
2022-10-31T09:08:34.529Z,1009
2022-10-31T09:09:50.761Z,1009
2022-10-31T09:11:07.019Z,1008.9
2022-10-31T09:12:23.230Z,1008.9
2022-10-31T09:13:39.474Z,1008.9
2022-10-31T09:14:55.705Z,1008.9
2022-10-31T09:16:11.949Z,1008.9
2022-10-31T09:17:27.204Z,1008.9
2022-10-31T09:18:43.454Z,1008.8
2022-10-31T09:19:59.680Z,1008.9
2022-10-31T09:21:15.912Z,1008.9
2022-10-31T09:22:32.164Z,1008.9
2022-10-31T09:23:48.409Z,1008.8
2022-10-31T09:25:04.626Z,1008.8
2022-10-31T09:26:20.862Z,1008.8
2022-10-31T09:27:37.109Z,1008.8
2022-10-31T09:28:53.358Z,1008.8
2022-10-31T09:30:09.590Z,1008.8
2022-10-31T09:31:25.839Z,1008.8
2022-10-31T09:32:42.068Z,1008.8
2022-10-31T09:33:57.345Z,1008.8
2022-10-31T09:35:13.551Z,1008.8
2022-10-31T09:36:29.792Z,1008.8
2022-10-31T09:37:46.048Z,1008.8
2022-10-31T09:39:02.297Z,1008.8
2022-10-31T09:40:18.515Z,1008.8
2022-10-31T09:41:34.758Z,1008.8
2022-10-31T09:42:50.987Z,1008.8
2022-10-31T09:44:07.249Z,1008.7
2022-10-31T09:45:23.472Z,1008.8
2022-10-31T09:46:39.716Z,1008.8
2022-10-31T09:47:55.962Z,1008.8
2022-10-31T09:49:12.211Z,1008.7
2022-10-31T09:50:27.459Z,1008.8
2022-10-31T09:51:43.717Z,1008.8
2022-10-31T09:52:59.933Z,1008.7
2022-10-31T09:54:16.180Z,1008.7
2022-10-31T09:55:32.409Z,1008.7
2022-10-31T09:56:48.649Z,1008.7
2022-10-31T09:58:04.884Z,1008.7
2022-10-31T09:59:21.124Z,1008.7
2022-10-31T10:00:37.374Z,1008.7
2022-10-31T10:01:53.647Z,1008.7
2022-10-31T10:03:09.861Z,1008.6
2022-10-31T10:04:26.116Z,1008.6
2022-10-31T10:05:42.342Z,1008.6
2022-10-31T10:06:57.602Z,1008.7
2022-10-31T10:08:13.828Z,1008.7
2022-10-31T10:09:30.076Z,1008.7
2022-10-31T10:10:46.311Z,1008.6
2022-10-31T10:12:02.547Z,1008.7
2022-10-31T10:13:18.788Z,1008.7
2022-10-31T10:14:35.049Z,1008.6
2022-10-31T10:15:51.265Z,1008.6
2022-10-31T10:17:07.508Z,1008.6
2022-10-31T10:18:23.758Z,1008.6
2022-10-31T10:19:39.990Z,1008.6
2022-10-31T10:20:56.229Z,1008.6
2022-10-31T10:22:12.468Z,1008.6
2022-10-31T10:23:27.732Z,1008.6
2022-10-31T10:24:43.981Z,1008.6
2022-10-31T10:26:00.211Z,1008.6
2022-10-31T10:27:16.432Z,1008.5
2022-10-31T10:28:32.688Z,1008.5
2022-10-31T10:29:48.946Z,1008.5
2022-10-31T10:31:05.149Z,1008.5
2022-10-31T10:32:21.389Z,1008.5
2022-10-31T10:33:37.634Z,1008.5
2022-10-31T10:34:53.864Z,1008.4
2022-10-31T10:36:10.106Z,1008.4
2022-10-31T10:37:26.354Z,1008.4
2022-10-31T10:38:42.593Z,1008.4
2022-10-31T10:39:57.868Z,1008.4
2022-10-31T10:41:14.094Z,1008.4
2022-10-31T10:42:30.339Z,1008.3
2022-10-31T10:43:46.567Z,1008.4
2022-10-31T10:45:02.810Z,1008.3
2022-10-31T10:46:19.037Z,1008.3
2022-10-31T10:47:35.291Z,1008.3
2022-10-31T10:48:51.505Z,1008.3
2022-10-31T10:50:07.775Z,1008.3
2022-10-31T10:51:23.984Z,1008.3
2022-10-31T10:52:40.227Z,1008.3
2022-10-31T10:53:56.473Z,1008.3
2022-10-31T10:55:12.729Z,1008.3
2022-10-31T10:56:27.958Z,1008.2
2022-10-31T10:57:44.192Z,1008.2
2022-10-31T10:59:00.443Z,1008.2
2022-10-31T11:00:16.679Z,1008.2
2022-10-31T11:01:32.915Z,1008.1
2022-10-31T11:02:49.161Z,1008.2
2022-10-31T11:04:05.392Z,1008.1
2022-10-31T11:05:21.620Z,1008.2
2022-10-31T11:06:37.867Z,1008.2
2022-10-31T11:07:54.105Z,1008.1
2022-10-31T11:09:10.351Z,1008.1
2022-10-31T11:10:26.574Z,1008.1
2022-10-31T11:11:42.817Z,1008.1
2022-10-31T11:12:58.080Z,1008
2022-10-31T11:14:14.316Z,1008
2022-10-31T11:15:30.543Z,1008
2022-10-31T11:16:46.787Z,1008
2022-10-31T11:18:03.020Z,1008
2022-10-31T11:19:19.262Z,1008
2022-10-31T11:20:35.493Z,1008
2022-10-31T11:21:51.737Z,1008
2022-10-31T11:23:07.987Z,1008
2022-10-31T11:24:24.212Z,1008
2022-10-31T11:25:40.451Z,1008
2022-10-31T11:26:56.698Z,1008
2022-10-31T11:28:12.928Z,1007.9
2022-10-31T11:29:28.195Z,1007.9
2022-10-31T11:30:44.426Z,1007.9
2022-10-31T11:32:00.668Z,1007.9
2022-10-31T11:33:16.906Z,1007.9
2022-10-31T11:34:33.150Z,1007.8
2022-10-31T11:35:49.381Z,1007.9
2022-10-31T11:37:05.619Z,1007.9
2022-10-31T11:38:21.860Z,1007.9
2022-10-31T11:39:38.096Z,1007.9
2022-10-31T11:40:54.344Z,1007.9
2022-10-31T11:42:10.565Z,1007.9
2022-10-31T11:43:26.804Z,1007.8
2022-10-31T11:44:43.045Z,1007.8
2022-10-31T11:45:58.314Z,1007.8
2022-10-31T11:47:14.550Z,1007.8
2022-10-31T11:48:30.787Z,1007.7
2022-10-31T11:49:47.022Z,1007.8
2022-10-31T11:51:03.261Z,1007.8
2022-10-31T11:52:19.487Z,1007.7
2022-10-31T11:53:35.732Z,1007.7
2022-10-31T11:54:51.965Z,1007.7
2022-10-31T11:56:08.219Z,1007.7
2022-10-31T11:57:24.444Z,1007.7
2022-10-31T11:58:40.694Z,1007.7
2022-10-31T11:59:56.920Z,1007.7
2022-10-31T12:01:13.161Z,1007.7
2022-10-31T12:02:28.418Z,1007.7
2022-10-31T12:03:44.652Z,1007.7
2022-10-31T12:05:00.904Z,1007.7
2022-10-31T12:06:17.131Z,1007.6
2022-10-31T12:07:33.368Z,1007.6
2022-10-31T12:08:49.604Z,1007.7
2022-10-31T12:10:05.844Z,1007.6
2022-10-31T12:11:22.089Z,1007.6
2022-10-31T12:12:38.337Z,1007.6
2022-10-31T12:13:54.573Z,1007.6
2022-10-31T12:15:10.803Z,1007.5
2022-10-31T12:16:27.043Z,1007.5
2022-10-31T12:17:43.277Z,1007.5
2022-10-31T12:18:58.531Z,1007.5
2022-10-31T12:20:14.782Z,1007.5
2022-10-31T12:21:31.007Z,1007.5
2022-10-31T12:22:47.241Z,1007.5
2022-10-31T12:24:03.479Z,1007.5
2022-10-31T12:25:19.722Z,1007.4
2022-10-31T12:26:35.955Z,1007.4
2022-10-31T12:27:52.208Z,1007.4
2022-10-31T12:29:08.437Z,1007.4
2022-10-31T12:30:24.689Z,1007.4
2022-10-31T12:31:40.924Z,1007.3
2022-10-31T12:32:57.167Z,1007.4
2022-10-31T12:34:13.388Z,1007.4
2022-10-31T12:35:28.643Z,1007.4
2022-10-31T12:36:44.884Z,1007.3
2022-10-31T12:38:01.124Z,1007.3
2022-10-31T12:39:17.374Z,1007.3
2022-10-31T12:40:33.611Z,1007.2
2022-10-31T12:41:49.838Z,1007.3
2022-10-31T12:43:06.074Z,1007.3
2022-10-31T12:44:22.317Z,1007.2
2022-10-31T12:45:38.550Z,1007.2
2022-10-31T12:46:54.792Z,1007.2
2022-10-31T12:48:11.026Z,1007.2
2022-10-31T12:49:27.280Z,1007.1
2022-10-31T12:50:43.505Z,1007.1
2022-10-31T12:51:58.776Z,1007.1
2022-10-31T12:53:15.015Z,1007.1
2022-10-31T12:54:31.250Z,1007.1
2022-10-31T12:55:47.481Z,1007.1
2022-10-31T12:57:03.716Z,1007.1
2022-10-31T12:58:19.969Z,1007.1
2022-10-31T12:59:36.203Z,1007
2022-10-31T13:00:52.431Z,1007.1
2022-10-31T13:02:08.685Z,1007
2022-10-31T13:03:24.917Z,1007
2022-10-31T13:04:41.154Z,1007
2022-10-31T13:05:57.399Z,1006.9
2022-10-31T13:07:13.633Z,1007
2022-10-31T13:08:28.900Z,1007
2022-10-31T13:09:45.121Z,1007
2022-10-31T13:11:01.373Z,1007
2022-10-31T13:12:17.603Z,1007
2022-10-31T13:13:33.837Z,1006.9
2022-10-31T13:14:50.073Z,1006.9
2022-10-31T13:16:05.354Z,1006.9
2022-10-31T13:17:21.577Z,1006.8
2022-10-31T13:18:37.829Z,1006.9
2022-10-31T13:19:54.062Z,1006.9
2022-10-31T13:21:10.296Z,1006.9
2022-10-31T13:22:26.534Z,1006.8
2022-10-31T13:23:42.768Z,1006.8
2022-10-31T13:24:59.006Z,1006.8
2022-10-31T13:26:15.247Z,1006.9
2022-10-31T13:27:31.498Z,1006.8
2022-10-31T13:28:47.720Z,1006.8
2022-10-31T13:30:03.972Z,1006.8
2022-10-31T13:31:20.195Z,1006.8
2022-10-31T13:32:35.455Z,1006.8
2022-10-31T13:33:51.702Z,1006.8
2022-10-31T13:35:07.937Z,1006.8
2022-10-31T13:36:24.177Z,1006.8
2022-10-31T13:37:40.406Z,1006.8
2022-10-31T13:38:56.650Z,1006.7
2022-10-31T13:40:12.891Z,1006.8
2022-10-31T13:41:29.134Z,1006.8
2022-10-31T13:42:45.368Z,1006.8
2022-10-31T13:44:01.612Z,1006.8
2022-10-31T13:45:17.850Z,1006.8
2022-10-31T13:46:34.078Z,1006.8
2022-10-31T13:47:50.324Z,1006.7
2022-10-31T13:49:05.584Z,1006.7
2022-10-31T13:50:21.813Z,1006.7
2022-10-31T13:51:38.055Z,1006.7
2022-10-31T13:52:54.291Z,1006.6
2022-10-31T13:54:10.527Z,1006.6
2022-10-31T13:55:26.776Z,1006.7
2022-10-31T13:56:43.020Z,1006.7
2022-10-31T13:57:59.250Z,1006.7
2022-10-31T13:59:15.490Z,1006.6
2022-10-31T14:00:31.730Z,1006.7
2022-10-31T14:01:47.976Z,1006.6
2022-10-31T14:03:04.201Z,1006.6
2022-10-31T14:04:20.454Z,1006.6
2022-10-31T14:05:35.706Z,1006.6
2022-10-31T14:06:51.952Z,1006.6
2022-10-31T14:08:08.193Z,1006.5
2022-10-31T14:09:24.417Z,1006.5
2022-10-31T14:10:40.667Z,1006.5
2022-10-31T14:11:56.910Z,1006.5
2022-10-31T14:13:13.145Z,1006.5
2022-10-31T14:14:29.383Z,1006.5
2022-10-31T14:15:45.617Z,1006.5
2022-10-31T14:17:01.852Z,1006.5
2022-10-31T14:18:18.094Z,1006.4
2022-10-31T14:19:34.330Z,1006.5
2022-10-31T14:20:50.589Z,1006.5
2022-10-31T14:22:05.836Z,1006.4
2022-10-31T14:23:22.070Z,1006.4
2022-10-31T14:24:38.315Z,1006.4
2022-10-31T14:25:54.551Z,1006.4
2022-10-31T14:27:10.799Z,1006.4
2022-10-31T14:28:27.037Z,1006.4
2022-10-31T14:29:43.273Z,1006.4
2022-10-31T14:30:59.505Z,1006.4
2022-10-31T14:32:15.757Z,1006.4
2022-10-31T14:33:31.985Z,1006.4
2022-10-31T14:34:48.242Z,1006.4
2022-10-31T14:36:04.463Z,1006.4
2022-10-31T14:37:20.709Z,1006.4
2022-10-31T14:38:35.000Z,1006.3
2022-10-31T14:39:52.219Z,1006.3
2022-10-31T14:41:08.443Z,1006.3
2022-10-31T14:42:24.681Z,1006.3
2022-10-31T14:43:40.934Z,1006.3
2022-10-31T14:44:57.180Z,1006.2
2022-10-31T14:46:13.416Z,1006.2
2022-10-31T14:47:29.648Z,1006.2
2022-10-31T14:48:45.901Z,1006.2
2022-10-31T14:50:02.134Z,1006.2
2022-10-31T14:51:18.372Z,1006.2
2022-10-31T14:52:34.622Z,1006.2
2022-10-31T14:53:50.851Z,1006.1
2022-10-31T14:55:06.114Z,1006.1
2022-10-31T14:56:22.355Z,1006.1
2022-10-31T14:57:38.591Z,1006.1
2022-10-31T14:58:54.831Z,1006.1
2022-10-31T15:00:11.062Z,1006.1
2022-10-31T15:01:27.311Z,1006.1
2022-10-31T15:02:43.556Z,1006.1
2022-10-31T15:03:59.786Z,1006
2022-10-31T15:05:16.020Z,1006.1
2022-10-31T15:06:32.272Z,1006.1
2022-10-31T15:07:48.503Z,1006
2022-10-31T15:09:04.746Z,1006
2022-10-31T15:10:21.000Z,1006
2022-10-31T15:11:36.246Z,1006
2022-10-31T15:12:52.480Z,1006
2022-10-31T15:14:08.728Z,1006
2022-10-31T15:15:24.976Z,1006
2022-10-31T15:16:41.208Z,1005.9
2022-10-31T15:17:57.440Z,1006
2022-10-31T15:19:13.688Z,1006
2022-10-31T15:20:29.940Z,1005.9
2022-10-31T15:21:46.173Z,1005.9
2022-10-31T15:23:02.414Z,1006
2022-10-31T15:24:18.652Z,1005.9
2022-10-31T15:25:34.886Z,1005.9
2022-10-31T15:26:51.124Z,1005.9
2022-10-31T15:28:06.398Z,1005.9
2022-10-31T15:29:22.623Z,1005.9
2022-10-31T15:30:38.864Z,1005.9
2022-10-31T15:31:55.100Z,1005.9
2022-10-31T15:33:11.340Z,1005.9
2022-10-31T15:34:27.584Z,1005.8
2022-10-31T15:35:43.826Z,1005.9
2022-10-31T15:37:00.070Z,1005.9
2022-10-31T15:38:16.302Z,1005.9
2022-10-31T15:39:32.541Z,1005.9
2022-10-31T15:40:48.781Z,1005.9
2022-10-31T15:42:05.034Z,1005.8
2022-10-31T15:43:21.279Z,1005.9
2022-10-31T15:44:36.527Z,1005.9
2022-10-31T15:45:52.756Z,1005.9
2022-10-31T15:47:09.008Z,1005.9
2022-10-31T15:48:25.249Z,1005.9
2022-10-31T15:49:41.483Z,1005.9
2022-10-31T15:50:57.734Z,1005.8
2022-10-31T15:52:13.964Z,1005.9
2022-10-31T15:53:30.214Z,1005.9
2022-10-31T15:54:46.443Z,1005.9
2022-10-31T15:56:02.675Z,1005.9
2022-10-31T15:57:18.932Z,1005.9
2022-10-31T15:58:35.154Z,1005.9
2022-10-31T15:59:51.394Z,1005.8
2022-10-31T16:01:06.658Z,1005.8
2022-10-31T16:02:22.906Z,1005.8
2022-10-31T16:04:55.397Z,1005.8